createdAt,value
2023-01-07T00:01:34.167Z,1.95
2023-01-07T00:06:56.096Z,1.93
2023-01-07T00:12:17.941Z,1.98
2023-01-07T00:17:39.820Z,2.11
2023-01-07T00:23:01.688Z,2.14
2023-01-07T00:28:23.810Z,1.97
2023-01-07T00:33:46.860Z,1.97
2023-01-07T00:39:20.358Z,2.18
2023-01-07T00:44:42.218Z,2.35
2023-01-07T00:50:04.366Z,2.42
2023-01-07T00:55:27.059Z,2.38
2023-01-07T01:00:49.587Z,2.29
2023-01-07T01:06:14.639Z,2.24
2023-01-07T01:11:36.526Z,2.50
2023-01-07T01:16:58.346Z,2.56
2023-01-07T01:22:20.209Z,2.45
2023-01-07T01:27:42.098Z,2.63
2023-01-07T01:33:03.992Z,2.68
2023-01-07T01:38:25.830Z,2.82
2023-01-07T01:43:47.941Z,2.93
2023-01-07T01:49:32.872Z,2.96
2023-01-07T01:54:59.226Z,2.97
2023-01-07T02:00:21.341Z,3.02
2023-01-07T02:05:44.864Z,3.06
2023-01-07T02:11:47.729Z,3.13
2023-01-07T02:17:37.481Z,3.20
2023-01-07T02:23:18.139Z,3.21
2023-01-07T02:29:01.311Z,3.34
2023-01-07T02:34:34.107Z,3.19
2023-01-07T02:40:20.358Z,3.30
2023-01-07T02:45:50.926Z,2.99
2023-01-07T02:51:13.070Z,3.18
2023-01-07T02:56:49.444Z,3.22
2023-01-07T03:02:18.452Z,3.31
2023-01-07T03:07:55.497Z,3.33
2023-01-07T03:13:23.075Z,3.44
2023-01-07T03:18:59.287Z,3.33
2023-01-07T03:24:23.658Z,3.25
2023-01-07T03:29:47.601Z,3.29
2023-01-07T03:35:10.125Z,3.27
2023-01-07T03:40:32.477Z,3.21
2023-01-07T03:45:57.623Z,3.22
2023-01-07T03:51:19.541Z,3.25
2023-01-07T03:56:41.401Z,3.13
2023-01-07T04:02:03.347Z,3.22
2023-01-07T04:07:25.291Z,3.26
2023-01-07T04:12:47.673Z,3.36
2023-01-07T04:18:09.521Z,3.40
2023-01-07T04:23:31.469Z,3.32
2023-01-07T04:28:53.405Z,3.41
2023-01-07T04:34:15.294Z,3.31
2023-01-07T04:39:37.181Z,3.20
2023-01-07T04:44:59.075Z,3.19
2023-01-07T04:50:20.982Z,3.19
2023-01-07T04:55:44.397Z,3.18
2023-01-07T05:01:08.201Z,3.09
2023-01-07T05:06:30.142Z,2.93
2023-01-07T05:11:51.949Z,2.64
2023-01-07T05:17:13.827Z,2.73
2023-01-07T05:22:35.669Z,2.63
2023-01-07T05:27:57.544Z,2.66
2023-01-07T05:33:19.531Z,2.62
2023-01-07T05:38:41.375Z,2.61
2023-01-07T05:44:03.347Z,2.51
2023-01-07T05:49:25.178Z,2.70
2023-01-07T05:54:47.104Z,2.73
2023-01-07T06:00:09.816Z,2.75
2023-01-07T06:05:31.898Z,2.62
2023-01-07T06:10:53.774Z,2.69
2023-01-07T06:16:16.148Z,2.70
2023-01-07T06:21:38.034Z,2.61
2023-01-07T06:26:59.857Z,2.61
2023-01-07T06:32:21.809Z,2.45
2023-01-07T06:37:43.687Z,2.49
2023-01-07T06:43:05.517Z,2.54
2023-01-07T06:48:27.349Z,2.66
2023-01-07T06:53:49.230Z,2.69
2023-01-07T06:59:11.480Z,2.65
2023-01-07T07:04:33.354Z,2.79
2023-01-07T07:09:55.211Z,2.85
2023-01-07T07:15:17.099Z,2.81
2023-01-07T07:20:39.005Z,2.99
2023-01-07T07:26:00.899Z,2.88
2023-01-07T07:31:22.862Z,3.21
2023-01-07T07:36:44.791Z,3.35
2023-01-07T07:42:06.680Z,3.40
2023-01-07T07:47:28.531Z,3.36
2023-01-07T07:52:50.367Z,3.23
2023-01-07T07:58:12.460Z,3.37
2023-01-07T08:03:34.413Z,3.30
2023-01-07T08:08:56.310Z,3.37
2023-01-07T08:14:18.202Z,3.44
2023-01-07T08:19:40.090Z,3.65
2023-01-07T08:25:02.486Z,3.71
2023-01-07T08:30:25.217Z,3.75
2023-01-07T08:35:47.106Z,3.84
2023-01-07T08:41:09.246Z,3.86
2023-01-07T08:46:31.180Z,3.99
2023-01-07T08:51:53.259Z,4.04
2023-01-07T08:57:15.817Z,4.29
2023-01-07T09:02:37.738Z,4.38
2023-01-07T09:07:59.738Z,4.78
2023-01-07T09:13:21.851Z,5.10
2023-01-07T09:18:43.805Z,5.31
2023-01-07T09:24:05.871Z,5.81
2023-01-07T09:29:27.894Z,6.44
2023-01-07T09:34:49.754Z,6.67
2023-01-07T09:40:27.146Z,6.87
2023-01-07T09:45:59.805Z,8.85
2023-01-07T09:51:35.478Z,8.81
2023-01-07T09:56:57.578Z,8.05
2023-01-07T10:02:45.623Z,7.30
2023-01-07T10:08:29.117Z,6.67
2023-01-07T10:14:05.808Z,6.52
2023-01-07T10:19:50.929Z,6.66
2023-01-07T10:25:20.471Z,6.75
2023-01-07T10:30:46.974Z,6.90
2023-01-07T10:36:33.589Z,7.17
2023-01-07T10:42:00.976Z,7.11
2023-01-07T10:47:28.719Z,7.21
2023-01-07T10:53:14.700Z,7.37
2023-01-07T10:58:41.086Z,7.76
2023-01-07T11:04:04.612Z,8.14
2023-01-07T11:09:38.213Z,8.09
2023-01-07T11:15:04.087Z,8.30
2023-01-07T11:20:52.075Z,8.24
2023-01-07T11:26:16.301Z,8.31
2023-01-07T11:31:53.284Z,8.31
2023-01-07T11:37:35.950Z,8.35
2023-01-07T11:43:20.369Z,8.57
2023-01-07T11:48:55.481Z,8.41
2023-01-07T11:54:26.427Z,8.48
2023-01-07T11:59:48.371Z,8.08
2023-01-07T12:05:24.081Z,7.86
2023-01-07T12:10:46.192Z,7.76
2023-01-07T12:16:08.989Z,7.50
2023-01-07T12:21:33.675Z,7.61
2023-01-07T12:27:00.660Z,7.57
2023-01-07T12:32:28.552Z,7.63
2023-01-07T12:37:56.494Z,7.72
2023-01-07T12:43:25.113Z,7.19
2023-01-07T12:49:02.261Z,7.57
2023-01-07T12:54:42.420Z,7.47
2023-01-07T13:00:16.823Z,7.28
2023-01-07T13:05:59.924Z,7.00
2023-01-07T13:11:30.718Z,7.17
2023-01-07T13:16:54.718Z,7.41
2023-01-07T13:22:28.986Z,7.43
2023-01-07T13:28:23.047Z,7.38
2023-01-07T13:33:57.023Z,7.52
2023-01-07T13:39:37.746Z,7.53
2023-01-07T13:45:08.843Z,7.54
2023-01-07T13:50:33.755Z,7.35
2023-01-07T13:56:18.306Z,7.42
2023-01-07T14:02:18.888Z,7.41
2023-01-07T14:08:02.451Z,7.35
2023-01-07T14:13:39.375Z,7.16
2023-01-07T14:19:51.967Z,7.26
2023-01-07T14:25:32.951Z,7.20
2023-01-07T14:30:55.252Z,7.18
2023-01-07T14:36:17.315Z,6.93
2023-01-07T14:42:14.139Z,6.89
2023-01-07T14:47:44.865Z,6.53
2023-01-07T14:53:06.647Z,6.53
2023-01-07T14:58:53.238Z,6.46
2023-01-07T15:04:27.320Z,6.43
2023-01-07T15:10:23.788Z,6.48
2023-01-07T15:15:50.186Z,6.56
2023-01-07T15:21:39.944Z,6.37
2023-01-07T15:27:23.792Z,6.41
2023-01-07T15:32:54.688Z,6.50
2023-01-07T15:38:25.626Z,6.29
2023-01-07T15:43:47.639Z,6.33
2023-01-07T15:49:09.412Z,6.25
2023-01-07T15:54:35.140Z,6.29
2023-01-07T15:59:57.920Z,6.28
2023-01-07T16:05:20.108Z,6.30
2023-01-07T16:10:42.091Z,6.38
2023-01-07T16:16:04.599Z,6.45
2023-01-07T16:21:35.199Z,6.44
2023-01-07T16:27:00.410Z,6.56
2023-01-07T16:32:23.687Z,6.49
2023-01-07T16:37:47.201Z,6.34
2023-01-07T16:43:30.578Z,6.18
2023-01-07T16:49:11.347Z,5.98
2023-01-07T16:54:37.614Z,6.10
2023-01-07T17:00:02.439Z,6.17
2023-01-07T17:05:27.447Z,6.18
2023-01-07T17:10:58.527Z,6.08
2023-01-07T17:16:23.293Z,5.97
2023-01-07T17:21:45.169Z,6.01
2023-01-07T17:27:18.155Z,5.92
2023-01-07T17:32:42.113Z,5.95
2023-01-07T17:38:12.138Z,5.97
2023-01-07T17:43:34.022Z,6.12
2023-01-07T17:48:59.876Z,6.00
2023-01-07T17:54:24.657Z,5.97
2023-01-07T17:59:46.501Z,6.02
2023-01-07T18:05:14.658Z,5.81
2023-01-07T18:10:36.788Z,5.77
2023-01-07T18:15:59.038Z,5.60
2023-01-07T18:21:20.946Z,5.51
2023-01-07T18:26:42.929Z,5.49
2023-01-07T18:32:04.965Z,5.57
2023-01-07T18:37:26.926Z,5.72
2023-01-07T18:42:48.916Z,5.68
2023-01-07T18:48:12.824Z,5.80
2023-01-07T18:53:34.671Z,5.92
2023-01-07T18:58:56.580Z,5.83
2023-01-07T19:04:18.437Z,5.85
2023-01-07T19:09:40.398Z,5.70
2023-01-07T19:15:02.253Z,5.61
2023-01-07T19:20:24.078Z,5.65
2023-01-07T19:25:56.518Z,5.71
2023-01-07T19:31:18.386Z,5.87
2023-01-07T19:36:41.324Z,5.62
2023-01-07T19:42:03.209Z,5.47
2023-01-07T19:47:25.258Z,5.32
2023-01-07T19:52:47.063Z,5.33
2023-01-07T19:58:08.897Z,5.39
2023-01-07T20:03:35.129Z,5.36
2023-01-07T20:08:58.239Z,5.46
2023-01-07T20:14:20.087Z,5.25
2023-01-07T20:19:41.917Z,5.14
2023-01-07T20:25:03.956Z,5.31
2023-01-07T20:30:25.748Z,5.12
2023-01-07T20:35:47.575Z,4.99
2023-01-07T20:41:13.234Z,4.99
2023-01-07T20:46:35.302Z,4.89
2023-01-07T20:51:57.178Z,4.72
2023-01-07T20:57:19.011Z,4.74
2023-01-07T21:02:41.019Z,4.93
2023-01-07T21:08:02.964Z,4.85
2023-01-07T21:13:24.829Z,4.93
2023-01-07T21:18:46.674Z,4.97
2023-01-07T21:24:08.930Z,5.03
2023-01-07T21:29:30.810Z,5.07
2023-01-07T21:34:52.639Z,5.13
2023-01-07T21:40:14.452Z,5.28
2023-01-07T21:45:36.745Z,5.12
2023-01-07T21:51:07.005Z,5.24
2023-01-07T21:56:30.438Z,5.21
2023-01-07T22:01:52.594Z,5.21
2023-01-07T22:07:18.766Z,5.27
2023-01-07T22:12:40.664Z,5.25
2023-01-07T22:18:02.482Z,5.27
2023-01-07T22:23:24.309Z,5.34
2023-01-07T22:28:51.703Z,5.02
2023-01-07T22:34:13.648Z,5.13
2023-01-07T22:39:41.537Z,5.07
2023-01-07T22:45:10.929Z,4.97
2023-01-07T22:50:34.138Z,4.89
2023-01-07T22:55:57.891Z,4.78
2023-01-07T23:01:20.108Z,4.75
2023-01-07T23:06:42.056Z,4.80
2023-01-07T23:12:04.472Z,4.97
2023-01-07T23:17:26.282Z,4.92
2023-01-07T23:22:48.109Z,4.81
2023-01-07T23:28:09.915Z,4.77
2023-01-07T23:33:31.834Z,4.75
2023-01-07T23:38:53.763Z,4.71
2023-01-07T23:44:15.700Z,4.65
2023-01-07T23:49:37.504Z,4.54
2023-01-07T23:54:59.458Z,4.67
